sensor_id;sensor_type;location;lat;lon;timestamp;temperature;humidity
69546;SHT31;56766;52.260;20.746;2022-07-05T00:01:19;17.83;81.50
69546;SHT31;56766;52.260;20.746;2022-07-05T00:03:46;17.76;81.55
69546;SHT31;56766;52.260;20.746;2022-07-05T00:06:12;17.75;81.49
69546;SHT31;56766;52.260;20.746;2022-07-05T00:08:39;17.74;81.55
69546;SHT31;56766;52.260;20.746;2022-07-05T00:11:06;17.72;81.53
69546;SHT31;56766;52.260;20.746;2022-07-05T00:13:33;17.68;81.58
69546;SHT31;56766;52.260;20.746;2022-07-05T00:15:59;17.64;81.62
69546;SHT31;56766;52.260;20.746;2022-07-05T00:18:26;17.63;81.57
69546;SHT31;56766;52.260;20.746;2022-07-05T00:20:52;17.62;81.77
69546;SHT31;56766;52.260;20.746;2022-07-05T00:23:19;17.61;81.82
69546;SHT31;56766;52.260;20.746;2022-07-05T00:25:46;17.60;81.94
69546;SHT31;56766;52.260;20.746;2022-07-05T00:28:12;17.57;81.93
69546;SHT31;56766;52.260;20.746;2022-07-05T00:30:41;17.55;81.99
69546;SHT31;56766;52.260;20.746;2022-07-05T00:33:09;17.57;82.12
69546;SHT31;56766;52.260;20.746;2022-07-05T00:35:35;17.58;82.21
69546;SHT31;56766;52.260;20.746;2022-07-05T00:38:02;17.61;82.15
69546;SHT31;56766;52.260;20.746;2022-07-05T00:40:29;17.63;82.50
69546;SHT31;56766;52.260;20.746;2022-07-05T00:42:56;17.64;82.63
69546;SHT31;56766;52.260;20.746;2022-07-05T00:45:22;17.63;82.54
69546;SHT31;56766;52.260;20.746;2022-07-05T00:47:49;17.63;82.56
69546;SHT31;56766;52.260;20.746;2022-07-05T00:50:16;17.61;82.62
69546;SHT31;56766;52.260;20.746;2022-07-05T00:52:43;17.62;82.52
69546;SHT31;56766;52.260;20.746;2022-07-05T00:55:10;17.62;82.44
69546;SHT31;56766;52.260;20.746;2022-07-05T00:57:37;17.57;82.48
69546;SHT31;56766;52.260;20.746;2022-07-05T01:00:05;17.55;82.57
69546;SHT31;56766;52.260;20.746;2022-07-05T01:02:34;17.55;82.64
69546;SHT31;56766;52.260;20.746;2022-07-05T01:05:01;17.56;82.62
69546;SHT31;56766;52.260;20.746;2022-07-05T01:07:30;17.53;82.61
69546;SHT31;56766;52.260;20.746;2022-07-05T01:09:57;17.52;82.77
69546;SHT31;56766;52.260;20.746;2022-07-05T01:12:23;17.48;82.89
69546;SHT31;56766;52.260;20.746;2022-07-05T01:14:52;17.49;82.72
69546;SHT31;56766;52.260;20.746;2022-07-05T01:17:22;17.48;82.71
69546;SHT31;56766;52.260;20.746;2022-07-05T01:19:50;17.47;82.83
69546;SHT31;56766;52.260;20.746;2022-07-05T01:22:20;17.47;82.96
69546;SHT31;56766;52.260;20.746;2022-07-05T01:24:49;17.43;83.07
69546;SHT31;56766;52.260;20.746;2022-07-05T01:27:19;17.39;83.11
69546;SHT31;56766;52.260;20.746;2022-07-05T01:29:47;17.36;83.15
69546;SHT31;56766;52.260;20.746;2022-07-05T01:32:14;17.35;83.37
69546;SHT31;56766;52.260;20.746;2022-07-05T01:34:42;17.34;83.42
69546;SHT31;56766;52.260;20.746;2022-07-05T01:37:10;17.35;83.39
69546;SHT31;56766;52.260;20.746;2022-07-05T01:39:37;17.36;83.41
69546;SHT31;56766;52.260;20.746;2022-07-05T01:42:06;17.35;83.41
69546;SHT31;56766;52.260;20.746;2022-07-05T01:44:33;17.33;83.28
69546;SHT31;56766;52.260;20.746;2022-07-05T01:47:05;17.34;83.19
69546;SHT31;56766;52.260;20.746;2022-07-05T01:49:38;17.31;83.25
69546;SHT31;56766;52.260;20.746;2022-07-05T01:52:10;17.30;83.25
69546;SHT31;56766;52.260;20.746;2022-07-05T01:54:39;17.31;83.12
69546;SHT31;56766;52.260;20.746;2022-07-05T01:57:07;17.32;83.27
69546;SHT31;56766;52.260;20.746;2022-07-05T01:59:35;17.33;83.21
69546;SHT31;56766;52.260;20.746;2022-07-05T02:02:05;17.36;83.11
69546;SHT31;56766;52.260;20.746;2022-07-05T02:04:34;17.38;83.05
69546;SHT31;56766;52.260;20.746;2022-07-05T02:07:07;17.39;83.04
69546;SHT31;56766;52.260;20.746;2022-07-05T02:09:35;17.36;83.17
69546;SHT31;56766;52.260;20.746;2022-07-05T02:12:04;17.34;83.24
69546;SHT31;56766;52.260;20.746;2022-07-05T02:14:31;17.34;83.30
69546;SHT31;56766;52.260;20.746;2022-07-05T02:16:58;17.34;83.23
69546;SHT31;56766;52.260;20.746;2022-07-05T02:19:25;17.33;83.24
69546;SHT31;56766;52.260;20.746;2022-07-05T02:21:52;17.36;83.18
69546;SHT31;56766;52.260;20.746;2022-07-05T02:24:22;17.36;83.19
69546;SHT31;56766;52.260;20.746;2022-07-05T02:26:49;17.36;83.27
69546;SHT31;56766;52.260;20.746;2022-07-05T02:29:16;17.37;83.30
69546;SHT31;56766;52.260;20.746;2022-07-05T02:31:42;17.36;83.41
69546;SHT31;56766;52.260;20.746;2022-07-05T02:34:09;17.35;83.54
69546;SHT31;56766;52.260;20.746;2022-07-05T02:36:36;17.34;83.56
69546;SHT31;56766;52.260;20.746;2022-07-05T02:39:02;17.38;83.51
69546;SHT31;56766;52.260;20.746;2022-07-05T02:41:29;17.41;83.53
69546;SHT31;56766;52.260;20.746;2022-07-05T02:43:55;17.45;83.46
69546;SHT31;56766;52.260;20.746;2022-07-05T02:46:22;17.48;83.41
69546;SHT31;56766;52.260;20.746;2022-07-05T02:48:50;17.54;83.24
69546;SHT31;56766;52.260;20.746;2022-07-05T02:51:19;17.59;83.05
69546;SHT31;56766;52.260;20.746;2022-07-05T02:53:45;17.63;82.99
69546;SHT31;56766;52.260;20.746;2022-07-05T02:56:12;17.68;82.82
69546;SHT31;56766;52.260;20.746;2022-07-05T02:58:38;17.75;82.58
69546;SHT31;56766;52.260;20.746;2022-07-05T03:01:05;17.81;82.45
69546;SHT31;56766;52.260;20.746;2022-07-05T03:03:31;17.86;82.28
69546;SHT31;56766;52.260;20.746;2022-07-05T03:05:58;17.95;82.05
69546;SHT31;56766;52.260;20.746;2022-07-05T03:08:25;18.01;81.76
69546;SHT31;56766;52.260;20.746;2022-07-05T03:10:51;18.06;81.52
69546;SHT31;56766;52.260;20.746;2022-07-05T03:13:18;18.10;81.41
69546;SHT31;56766;52.260;20.746;2022-07-05T03:15:44;18.15;81.20
69546;SHT31;56766;52.260;20.746;2022-07-05T03:18:11;18.17;81.15
69546;SHT31;56766;52.260;20.746;2022-07-05T03:20:38;18.20;81.04
69546;SHT31;56766;52.260;20.746;2022-07-05T03:23:04;18.23;81.01
69546;SHT31;56766;52.260;20.746;2022-07-05T03:25:32;18.25;80.80
69546;SHT31;56766;52.260;20.746;2022-07-05T03:27:59;18.23;80.63
69546;SHT31;56766;52.260;20.746;2022-07-05T03:30:25;18.20;80.56
69546;SHT31;56766;52.260;20.746;2022-07-05T03:32:52;18.17;80.64
69546;SHT31;56766;52.260;20.746;2022-07-05T03:35:19;18.17;80.71
69546;SHT31;56766;52.260;20.746;2022-07-05T03:37:45;18.19;80.70
69546;SHT31;56766;52.260;20.746;2022-07-05T03:40:12;18.22;80.47
69546;SHT31;56766;52.260;20.746;2022-07-05T03:42:39;18.24;80.27
69546;SHT31;56766;52.260;20.746;2022-07-05T03:45:06;18.26;80.19
69546;SHT31;56766;52.260;20.746;2022-07-05T03:47:33;18.30;79.97
69546;SHT31;56766;52.260;20.746;2022-07-05T03:49:59;18.32;79.73
69546;SHT31;56766;52.260;20.746;2022-07-05T03:52:26;18.36;79.55
69546;SHT31;56766;52.260;20.746;2022-07-05T03:54:53;18.39;79.40
69546;SHT31;56766;52.260;20.746;2022-07-05T03:57:20;18.40;79.32
69546;SHT31;56766;52.260;20.746;2022-07-05T03:59:47;18.40;79.27
69546;SHT31;56766;52.260;20.746;2022-07-05T04:02:14;18.43;79.10
69546;SHT31;56766;52.260;20.746;2022-07-05T04:04:40;18.44;78.93
69546;SHT31;56766;52.260;20.746;2022-07-05T04:07:07;18.46;78.78
69546;SHT31;56766;52.260;20.746;2022-07-05T04:09:33;18.47;78.70
69546;SHT31;56766;52.260;20.746;2022-07-05T04:12:00;18.51;78.44
69546;SHT31;56766;52.260;20.746;2022-07-05T04:14:27;18.54;78.30
69546;SHT31;56766;52.260;20.746;2022-07-05T04:16:53;18.58;78.00
69546;SHT31;56766;52.260;20.746;2022-07-05T04:19:20;18.60;77.83
69546;SHT31;56766;52.260;20.746;2022-07-05T04:21:47;18.65;77.69
69546;SHT31;56766;52.260;20.746;2022-07-05T04:24:13;18.67;77.48
69546;SHT31;56766;52.260;20.746;2022-07-05T04:26:40;18.73;77.39
69546;SHT31;56766;52.260;20.746;2022-07-05T04:29:07;18.81;77.25
69546;SHT31;56766;52.260;20.746;2022-07-05T04:31:34;18.92;76.99
69546;SHT31;56766;52.260;20.746;2022-07-05T04:34:01;19.07;76.99
69546;SHT31;56766;52.260;20.746;2022-07-05T04:36:27;19.26;76.57
69546;SHT31;56766;52.260;20.746;2022-07-05T04:38:54;19.37;76.10
69546;SHT31;56766;52.260;20.746;2022-07-05T04:41:21;19.51;75.88
69546;SHT31;56766;52.260;20.746;2022-07-05T04:43:47;19.63;75.62
69546;SHT31;56766;52.260;20.746;2022-07-05T04:46:14;19.75;75.96
69546;SHT31;56766;52.260;20.746;2022-07-05T04:48:41;19.85;76.18
69546;SHT31;56766;52.260;20.746;2022-07-05T04:51:08;19.96;76.23
69546;SHT31;56766;52.260;20.746;2022-07-05T04:53:34;20.08;76.22
69546;SHT31;56766;52.260;20.746;2022-07-05T04:56:01;20.23;76.07
69546;SHT31;56766;52.260;20.746;2022-07-05T04:58:28;20.40;74.96
69546;SHT31;56766;52.260;20.746;2022-07-05T05:00:55;20.55;74.06
69546;SHT31;56766;52.260;20.746;2022-07-05T05:03:21;20.61;73.66
69546;SHT31;56766;52.260;20.746;2022-07-05T05:05:48;20.59;73.18
69546;SHT31;56766;52.260;20.746;2022-07-05T05:08:14;20.54;72.93
69546;SHT31;56766;52.260;20.746;2022-07-05T05:10:41;20.52;72.70
69546;SHT31;56766;52.260;20.746;2022-07-05T05:13:07;20.52;72.24
69546;SHT31;56766;52.260;20.746;2022-07-05T05:15:34;20.56;72.13
69546;SHT31;56766;52.260;20.746;2022-07-05T05:18:01;20.64;72.11
69546;SHT31;56766;52.260;20.746;2022-07-05T05:20:28;20.64;71.43
69546;SHT31;56766;52.260;20.746;2022-07-05T05:22:56;20.61;71.29
69546;SHT31;56766;52.260;20.746;2022-07-05T05:25:22;20.68;71.57
69546;SHT31;56766;52.260;20.746;2022-07-05T05:27:50;20.84;71.37
69546;SHT31;56766;52.260;20.746;2022-07-05T05:30:17;20.98;70.66
69546;SHT31;56766;52.260;20.746;2022-07-05T05:32:45;21.00;69.79
69546;SHT31;56766;52.260;20.746;2022-07-05T05:35:12;21.08;69.48
69546;SHT31;56766;52.260;20.746;2022-07-05T05:37:47;21.22;69.28
69546;SHT31;56766;52.260;20.746;2022-07-05T05:40:16;21.42;69.19
69546;SHT31;56766;52.260;20.746;2022-07-05T05:42:43;21.64;68.86
69546;SHT31;56766;52.260;20.746;2022-07-05T05:45:11;22.05;68.45
69546;SHT31;56766;52.260;20.746;2022-07-05T05:47:53;22.42;66.69
69546;SHT31;56766;52.260;20.746;2022-07-05T05:52:57;22.53;66.31
69546;SHT31;56766;52.260;20.746;2022-07-05T05:55:43;22.55;65.97
69546;SHT31;56766;52.260;20.746;2022-07-05T05:58:16;22.50;63.70
69546;SHT31;56766;52.260;20.746;2022-07-05T06:00:46;22.40;63.79
69546;SHT31;56766;52.260;20.746;2022-07-05T06:03:15;22.38;63.01
69546;SHT31;56766;52.260;20.746;2022-07-05T06:05:42;22.38;62.68
69546;SHT31;56766;52.260;20.746;2022-07-05T06:08:09;22.50;63.12
69546;SHT31;56766;52.260;20.746;2022-07-05T06:10:37;22.72;62.83
69546;SHT31;56766;52.260;20.746;2022-07-05T06:13:06;22.80;61.45
69546;SHT31;56766;52.260;20.746;2022-07-05T06:15:35;22.87;61.37
69546;SHT31;56766;52.260;20.746;2022-07-05T06:18:03;22.99;60.42
69546;SHT31;56766;52.260;20.746;2022-07-05T06:20:32;23.02;60.25
69546;SHT31;56766;52.260;20.746;2022-07-05T06:23:02;23.07;60.61
69546;SHT31;56766;52.260;20.746;2022-07-05T06:25:33;23.17;59.83
69546;SHT31;56766;52.260;20.746;2022-07-05T06:28:06;23.18;58.26
69546;SHT31;56766;52.260;20.746;2022-07-05T06:30:37;23.21;57.45
69546;SHT31;56766;52.260;20.746;2022-07-05T06:33:06;23.28;56.79
69546;SHT31;56766;52.260;20.746;2022-07-05T06:35:34;23.34;56.42
69546;SHT31;56766;52.260;20.746;2022-07-05T06:38:07;23.36;56.62
69546;SHT31;56766;52.260;20.746;2022-07-05T06:40:38;23.49;56.49
69546;SHT31;56766;52.260;20.746;2022-07-05T06:43:10;23.62;56.04
69546;SHT31;56766;52.260;20.746;2022-07-05T06:45:39;23.86;56.76
69546;SHT31;56766;52.260;20.746;2022-07-05T06:48:09;24.17;56.79
69546;SHT31;56766;52.260;20.746;2022-07-05T06:50:40;24.37;55.26
69546;SHT31;56766;52.260;20.746;2022-07-05T06:53:09;24.45;54.31
69546;SHT31;56766;52.260;20.746;2022-07-05T06:55:38;24.52;54.69
69546;SHT31;56766;52.260;20.746;2022-07-05T06:58:10;24.53;53.56
69546;SHT31;56766;52.260;20.746;2022-07-05T07:00:42;24.50;53.31
69546;SHT31;56766;52.260;20.746;2022-07-05T07:03:09;24.42;53.77
69546;SHT31;56766;52.260;20.746;2022-07-05T07:05:37;24.47;54.91
69546;SHT31;56766;52.260;20.746;2022-07-05T07:08:03;24.67;54.87
69546;SHT31;56766;52.260;20.746;2022-07-05T07:10:49;24.91;54.00
69546;SHT31;56766;52.260;20.746;2022-07-05T07:13:16;25.16;53.98
69546;SHT31;56766;52.260;20.746;2022-07-05T07:15:42;25.36;53.63
69546;SHT31;56766;52.260;20.746;2022-07-05T07:18:09;25.60;53.48
69546;SHT31;56766;52.260;20.746;2022-07-05T07:20:36;25.78;53.49
69546;SHT31;56766;52.260;20.746;2022-07-05T07:23:02;25.93;52.49
69546;SHT31;56766;52.260;20.746;2022-07-05T07:25:29;26.00;52.18
69546;SHT31;56766;52.260;20.746;2022-07-05T07:27:56;26.08;52.17
69546;SHT31;56766;52.260;20.746;2022-07-05T07:30:26;26.12;51.41
69546;SHT31;56766;52.260;20.746;2022-07-05T07:32:54;26.08;51.46
69546;SHT31;56766;52.260;20.746;2022-07-05T07:35:21;26.03;52.57
69546;SHT31;56766;52.260;20.746;2022-07-05T07:37:48;26.22;53.71
69546;SHT31;56766;52.260;20.746;2022-07-05T07:40:15;26.36;52.09
69546;SHT31;56766;52.260;20.746;2022-07-05T07:42:42;26.38;52.73
69546;SHT31;56766;52.260;20.746;2022-07-05T07:45:09;26.47;51.97
69546;SHT31;56766;52.260;20.746;2022-07-05T07:47:37;26.56;52.79
69546;SHT31;56766;52.260;20.746;2022-07-05T07:50:05;26.61;52.00
69546;SHT31;56766;52.260;20.746;2022-07-05T07:52:33;26.69;51.50
69546;SHT31;56766;52.260;20.746;2022-07-05T07:55:00;26.71;50.67
69546;SHT31;56766;52.260;20.746;2022-07-05T07:57:28;26.79;51.19
69546;SHT31;56766;52.260;20.746;2022-07-05T07:59:54;26.98;50.49
69546;SHT31;56766;52.260;20.746;2022-07-05T08:02:21;27.04;49.80
69546;SHT31;56766;52.260;20.746;2022-07-05T08:04:50;27.29;51.06
69546;SHT31;56766;52.260;20.746;2022-07-05T08:07:17;27.67;50.65
69546;SHT31;56766;52.260;20.746;2022-07-05T08:09:45;27.99;49.47
69546;SHT31;56766;52.260;20.746;2022-07-05T08:12:12;28.13;48.65
69546;SHT31;56766;52.260;20.746;2022-07-05T08:14:39;28.21;47.99
69546;SHT31;56766;52.260;20.746;2022-07-05T08:17:06;28.19;48.26
69546;SHT31;56766;52.260;20.746;2022-07-05T08:19:36;28.10;48.13
69546;SHT31;56766;52.260;20.746;2022-07-05T08:22:22;28.00;47.93
69546;SHT31;56766;52.260;20.746;2022-07-05T08:24:49;28.07;48.04
69546;SHT31;56766;52.260;20.746;2022-07-05T08:27:16;28.13;48.37
69546;SHT31;56766;52.260;20.746;2022-07-05T08:29:43;28.03;48.21
69546;SHT31;56766;52.260;20.746;2022-07-05T08:32:10;27.84;48.33
69546;SHT31;56766;52.260;20.746;2022-07-05T08:34:37;27.76;48.98
69546;SHT31;56766;52.260;20.746;2022-07-05T08:37:06;27.67;48.62
69546;SHT31;56766;52.260;20.746;2022-07-05T08:39:33;27.48;48.73
69546;SHT31;56766;52.260;20.746;2022-07-05T08:42:01;27.37;49.26
69546;SHT31;56766;52.260;20.746;2022-07-05T08:44:30;27.24;49.52
69546;SHT31;56766;52.260;20.746;2022-07-05T08:47:02;27.39;49.80
69546;SHT31;56766;52.260;20.746;2022-07-05T08:49:31;27.49;49.53
69546;SHT31;56766;52.260;20.746;2022-07-05T08:52:02;27.40;48.92
69546;SHT31;56766;52.260;20.746;2022-07-05T08:54:32;27.26;48.81
69546;SHT31;56766;52.260;20.746;2022-07-05T08:56:59;27.24;49.50
69546;SHT31;56766;52.260;20.746;2022-07-05T08:59:26;27.25;49.66
69546;SHT31;56766;52.260;20.746;2022-07-05T09:01:53;27.13;49.40
69546;SHT31;56766;52.260;20.746;2022-07-05T09:04:24;26.97;49.16
69546;SHT31;56766;52.260;20.746;2022-07-05T09:07:03;26.88;49.79
69546;SHT31;56766;52.260;20.746;2022-07-05T09:09:33;26.90;49.65
69546;SHT31;56766;52.260;20.746;2022-07-05T09:12:05;27.08;50.04
69546;SHT31;56766;52.260;20.746;2022-07-05T09:14:32;27.14;49.28
69546;SHT31;56766;52.260;20.746;2022-07-05T09:16:59;27.13;49.96
69546;SHT31;56766;52.260;20.746;2022-07-05T09:19:26;27.11;49.54
69546;SHT31;56766;52.260;20.746;2022-07-05T09:22:02;27.08;49.60
69546;SHT31;56766;52.260;20.746;2022-07-05T09:24:31;27.16;49.46
69546;SHT31;56766;52.260;20.746;2022-07-05T09:27:04;27.33;49.55
69546;SHT31;56766;52.260;20.746;2022-07-05T09:29:32;27.56;49.10
69546;SHT31;56766;52.260;20.746;2022-07-05T09:31:58;27.74;49.00
69546;SHT31;56766;52.260;20.746;2022-07-05T09:34:25;27.65;49.23
69546;SHT31;56766;52.260;20.746;2022-07-05T09:36:59;27.76;49.25
69546;SHT31;56766;52.260;20.746;2022-07-05T09:44:44;28.50;48.00
69546;SHT31;56766;52.260;20.746;2022-07-05T09:47:13;28.56;47.23
69546;SHT31;56766;52.260;20.746;2022-07-05T09:49:43;28.57;48.01
69546;SHT31;56766;52.260;20.746;2022-07-05T09:55:07;29.10;47.55
69546;SHT31;56766;52.260;20.746;2022-07-05T09:57:38;29.22;46.90
69546;SHT31;56766;52.260;20.746;2022-07-05T10:00:16;29.13;46.40
69546;SHT31;56766;52.260;20.746;2022-07-05T10:02:51;28.90;46.22
69546;SHT31;56766;52.260;20.746;2022-07-05T10:05:23;28.72;46.39
69546;SHT31;56766;52.260;20.746;2022-07-05T10:07:54;28.63;46.78
69546;SHT31;56766;52.260;20.746;2022-07-05T10:10:28;28.70;47.35
69546;SHT31;56766;52.260;20.746;2022-07-05T10:13:00;28.68;47.02
69546;SHT31;56766;52.260;20.746;2022-07-05T10:15:31;28.63;47.17
69546;SHT31;56766;52.260;20.746;2022-07-05T10:18:04;28.64;47.71
69546;SHT31;56766;52.260;20.746;2022-07-05T10:20:38;28.73;48.20
69546;SHT31;56766;52.260;20.746;2022-07-05T10:23:12;28.73;47.61
69546;SHT31;56766;52.260;20.746;2022-07-05T10:25:49;28.51;47.28
69546;SHT31;56766;52.260;20.746;2022-07-05T10:28:18;28.27;47.72
69546;SHT31;56766;52.260;20.746;2022-07-05T10:30:47;28.12;47.64
69546;SHT31;56766;52.260;20.746;2022-07-05T10:33:19;28.10;47.70
69546;SHT31;56766;52.260;20.746;2022-07-05T10:35:55;28.04;48.25
69546;SHT31;56766;52.260;20.746;2022-07-05T10:38:24;27.95;47.74
69546;SHT31;56766;52.260;20.746;2022-07-05T10:40:55;27.85;47.83
69546;SHT31;56766;52.260;20.746;2022-07-05T10:43:27;27.74;47.87
69546;SHT31;56766;52.260;20.746;2022-07-05T10:45:55;27.64;48.25
69546;SHT31;56766;52.260;20.746;2022-07-05T10:48:23;27.55;47.96
69546;SHT31;56766;52.260;20.746;2022-07-05T10:50:56;27.47;47.99
69546;SHT31;56766;52.260;20.746;2022-07-05T11:03:44;27.60;48.88
69546;SHT31;56766;52.260;20.746;2022-07-05T11:06:22;27.70;48.85
69546;SHT31;56766;52.260;20.746;2022-07-05T11:13:55;28.02;49.14
69546;SHT31;56766;52.260;20.746;2022-07-05T11:16:27;28.13;47.34
69546;SHT31;56766;52.260;20.746;2022-07-05T11:21:40;28.00;46.89
69546;SHT31;56766;52.260;20.746;2022-07-05T11:24:32;27.98;46.45
69546;SHT31;56766;52.260;20.746;2022-07-05T11:27:02;27.98;47.00
69546;SHT31;56766;52.260;20.746;2022-07-05T11:32:18;27.96;46.79
69546;SHT31;56766;52.260;20.746;2022-07-05T11:34:51;27.94;47.61
69546;SHT31;56766;52.260;20.746;2022-07-05T11:37:27;27.88;47.23
69546;SHT31;56766;52.260;20.746;2022-07-05T11:42:37;27.74;46.49
69546;SHT31;56766;52.260;20.746;2022-07-05T11:45:11;27.63;46.67
69546;SHT31;56766;52.260;20.746;2022-07-05T11:47:40;27.56;46.45
69546;SHT31;56766;52.260;20.746;2022-07-05T11:50:09;27.53;46.99
69546;SHT31;56766;52.260;20.746;2022-07-05T11:52:38;27.62;47.49
69546;SHT31;56766;52.260;20.746;2022-07-05T11:55:10;27.61;46.70
69546;SHT31;56766;52.260;20.746;2022-07-05T11:57:48;27.47;46.53
69546;SHT31;56766;52.260;20.746;2022-07-05T12:00:45;27.33;47.22
69546;SHT31;56766;52.260;20.746;2022-07-05T12:03:20;27.27;46.99
69546;SHT31;56766;52.260;20.746;2022-07-05T12:05:46;27.25;47.30
69546;SHT31;56766;52.260;20.746;2022-07-05T12:08:23;27.21;47.81
69546;SHT31;56766;52.260;20.746;2022-07-05T12:10:52;27.17;47.94
69546;SHT31;56766;52.260;20.746;2022-07-05T12:13:48;27.00;47.21
69546;SHT31;56766;52.260;20.746;2022-07-05T12:16:16;26.82;48.16
69546;SHT31;56766;52.260;20.746;2022-07-05T12:18:51;26.73;48.36
69546;SHT31;56766;52.260;20.746;2022-07-05T12:21:23;26.57;48.28
69546;SHT31;56766;52.260;20.746;2022-07-05T12:23:51;26.54;48.87
69546;SHT31;56766;52.260;20.746;2022-07-05T12:26:20;26.49;48.36
69546;SHT31;56766;52.260;20.746;2022-07-05T12:28:49;26.42;48.51
69546;SHT31;56766;52.260;20.746;2022-07-05T12:31:21;26.42;49.01
69546;SHT31;56766;52.260;20.746;2022-07-05T12:33:51;26.39;48.45
69546;SHT31;56766;52.260;20.746;2022-07-05T12:36:22;26.40;48.81
69546;SHT31;56766;52.260;20.746;2022-07-05T12:38:49;26.54;49.96
69546;SHT31;56766;52.260;20.746;2022-07-05T12:41:22;26.63;49.59
69546;SHT31;56766;52.260;20.746;2022-07-05T12:46:16;26.45;48.63
69546;SHT31;56766;52.260;20.746;2022-07-05T12:48:43;26.37;48.75
69546;SHT31;56766;52.260;20.746;2022-07-05T12:51:11;26.29;48.67
69546;SHT31;56766;52.260;20.746;2022-07-05T12:53:46;26.19;48.75
69546;SHT31;56766;52.260;20.746;2022-07-05T12:56:33;25.96;48.23
69546;SHT31;56766;52.260;20.746;2022-07-05T12:59:18;25.71;48.07
69546;SHT31;56766;52.260;20.746;2022-07-05T13:01:45;25.52;48.45
69546;SHT31;56766;52.260;20.746;2022-07-05T13:12:14;24.70;49.83
69546;SHT31;56766;52.260;20.746;2022-07-05T13:14:45;24.47;49.78
69546;SHT31;56766;52.260;20.746;2022-07-05T13:17:16;24.32;50.56
69546;SHT31;56766;52.260;20.746;2022-07-05T13:19:45;24.18;51.16
69546;SHT31;56766;52.260;20.746;2022-07-05T13:22:14;24.05;52.09
69546;SHT31;56766;52.260;20.746;2022-07-05T13:24:42;23.91;52.84
69546;SHT31;56766;52.260;20.746;2022-07-05T13:27:10;23.81;53.40
69546;SHT31;56766;52.260;20.746;2022-07-05T13:29:39;23.72;53.87
69546;SHT31;56766;52.260;20.746;2022-07-05T13:32:06;23.59;53.93
69546;SHT31;56766;52.260;20.746;2022-07-05T13:34:33;23.48;54.46
69546;SHT31;56766;52.260;20.746;2022-07-05T13:37:00;23.38;54.87
69546;SHT31;56766;52.260;20.746;2022-07-05T13:39:28;23.25;54.97
69546;SHT31;56766;52.260;20.746;2022-07-05T13:41:56;23.16;55.15
69546;SHT31;56766;52.260;20.746;2022-07-05T13:44:24;23.11;55.37
69546;SHT31;56766;52.260;20.746;2022-07-05T13:46:51;23.08;54.99
69546;SHT31;56766;52.260;20.746;2022-07-05T13:49:17;23.05;54.82
69546;SHT31;56766;52.260;20.746;2022-07-05T13:51:45;23.02;54.82
69546;SHT31;56766;52.260;20.746;2022-07-05T13:54:12;22.98;54.35
69546;SHT31;56766;52.260;20.746;2022-07-05T13:56:40;22.95;54.37
69546;SHT31;56766;52.260;20.746;2022-07-05T13:59:07;22.92;55.00
69546;SHT31;56766;52.260;20.746;2022-07-05T14:01:34;22.89;55.20
69546;SHT31;56766;52.260;20.746;2022-07-05T14:04:02;22.87;55.27
69546;SHT31;56766;52.260;20.746;2022-07-05T14:06:30;22.80;55.42
69546;SHT31;56766;52.260;20.746;2022-07-05T14:08:59;22.72;55.63
69546;SHT31;56766;52.260;20.746;2022-07-05T14:11:26;22.66;56.12
69546;SHT31;56766;52.260;20.746;2022-07-05T14:13:56;22.63;56.13
69546;SHT31;56766;52.260;20.746;2022-07-05T14:16:23;22.59;56.62
69546;SHT31;56766;52.260;20.746;2022-07-05T14:18:51;22.54;57.29
69546;SHT31;56766;52.260;20.746;2022-07-05T14:21:19;22.40;58.08
69546;SHT31;56766;52.260;20.746;2022-07-05T14:23:46;22.25;58.46
69546;SHT31;56766;52.260;20.746;2022-07-05T14:26:14;22.09;58.72
69546;SHT31;56766;52.260;20.746;2022-07-05T14:28:41;21.92;59.69
69546;SHT31;56766;52.260;20.746;2022-07-05T14:31:09;21.75;60.37
69546;SHT31;56766;52.260;20.746;2022-07-05T14:33:36;21.58;60.77
69546;SHT31;56766;52.260;20.746;2022-07-05T14:36:06;21.45;61.67
69546;SHT31;56766;52.260;20.746;2022-07-05T14:38:33;21.36;61.76
69546;SHT31;56766;52.260;20.746;2022-07-05T14:40:59;21.29;62.10
69546;SHT31;56766;52.260;20.746;2022-07-05T14:43:26;21.28;62.33
69546;SHT31;56766;52.260;20.746;2022-07-05T14:45:53;21.30;62.43
69546;SHT31;56766;52.260;20.746;2022-07-05T14:48:19;21.34;64.26
69546;SHT31;56766;52.260;20.746;2022-07-05T14:50:47;21.32;66.59
69546;SHT31;56766;52.260;20.746;2022-07-05T14:53:15;21.27;67.07
69546;SHT31;56766;52.260;20.746;2022-07-05T14:55:43;21.26;67.24
69546;SHT31;56766;52.260;20.746;2022-07-05T14:58:10;21.27;67.03
69546;SHT31;56766;52.260;20.746;2022-07-05T15:00:36;21.23;67.04
69546;SHT31;56766;52.260;20.746;2022-07-05T15:03:03;21.17;66.62
69546;SHT31;56766;52.260;20.746;2022-07-05T15:05:29;21.10;65.57
69546;SHT31;56766;52.260;20.746;2022-07-05T15:07:57;21.09;65.32
69546;SHT31;56766;52.260;20.746;2022-07-05T15:10:23;21.00;65.65
69546;SHT31;56766;52.260;20.746;2022-07-05T15:12:51;20.90;65.58
69546;SHT31;56766;52.260;20.746;2022-07-05T15:15:17;20.77;66.40
69546;SHT31;56766;52.260;20.746;2022-07-05T15:17:44;20.63;67.16
69546;SHT31;56766;52.260;20.746;2022-07-05T15:20:11;20.49;66.63
69546;SHT31;56766;52.260;20.746;2022-07-05T15:22:38;20.33;66.63
69546;SHT31;56766;52.260;20.746;2022-07-05T15:25:05;20.20;67.07
69546;SHT31;56766;52.260;20.746;2022-07-05T15:27:32;19.96;68.08
69546;SHT31;56766;52.260;20.746;2022-07-05T15:29:59;19.66;69.79
69546;SHT31;56766;52.260;20.746;2022-07-05T15:32:26;19.34;71.18
69546;SHT31;56766;52.260;20.746;2022-07-05T15:34:52;19.03;72.49
69546;SHT31;56766;52.260;20.746;2022-07-05T15:37:19;18.84;73.22
69546;SHT31;56766;52.260;20.746;2022-07-05T15:39:46;18.66;74.29
69546;SHT31;56766;52.260;20.746;2022-07-05T15:42:14;18.42;75.22
69546;SHT31;56766;52.260;20.746;2022-07-05T15:44:43;18.25;75.97
69546;SHT31;56766;52.260;20.746;2022-07-05T15:47:09;18.12;76.18
69546;SHT31;56766;52.260;20.746;2022-07-05T15:49:38;18.11;76.69
69546;SHT31;56766;52.260;20.746;2022-07-05T15:52:05;18.11;77.08
69546;SHT31;56766;52.260;20.746;2022-07-05T15:54:34;18.13;77.54
69546;SHT31;56766;52.260;20.746;2022-07-05T15:57:01;18.15;77.90
69546;SHT31;56766;52.260;20.746;2022-07-05T15:59:28;18.15;78.46
69546;SHT31;56766;52.260;20.746;2022-07-05T16:01:55;18.09;78.88
69546;SHT31;56766;52.260;20.746;2022-07-05T16:04:22;18.07;79.31
69546;SHT31;56766;52.260;20.746;2022-07-05T16:06:58;18.08;79.85
69546;SHT31;56766;52.260;20.746;2022-07-05T16:09:26;18.13;80.14